createdAt,value
2023-04-06T00:01:23.317Z,4.15
2023-04-06T00:03:50.876Z,4.75
2023-04-06T00:06:18.339Z,4.50
2023-04-06T00:08:45.684Z,4.97
2023-04-06T00:11:13.112Z,4.90
2023-04-06T00:13:40.324Z,5.10
2023-04-06T00:16:07.898Z,6.63
2023-04-06T00:18:35.338Z,5.93
2023-04-06T00:21:04.733Z,5.70
2023-04-06T00:23:31.927Z,6.43
2023-04-06T00:25:59.379Z,6.35
2023-04-06T00:28:27.035Z,4.93
2023-04-06T00:30:56.291Z,4.90
2023-04-06T00:33:24.485Z,4.90
2023-04-06T00:35:52.302Z,4.40
2023-04-06T00:38:20.429Z,4.40
2023-04-06T00:40:47.891Z,3.95
2023-04-06T00:43:15.998Z,4.00
2023-04-06T00:45:43.850Z,4.10
2023-04-06T00:48:13.014Z,3.70
2023-04-06T00:50:40.535Z,4.03
2023-04-06T00:53:07.690Z,3.30
2023-04-06T00:55:36.925Z,3.60
2023-04-06T00:58:05.062Z,3.92
2023-04-06T01:00:42.640Z,3.13
2023-04-06T01:03:15.474Z,3.72
2023-04-06T01:05:45.219Z,3.47
2023-04-06T01:08:20.175Z,3.45
2023-04-06T01:10:47.936Z,3.50
2023-04-06T01:13:29.874Z,3.40
2023-04-06T01:16:02.379Z,3.30
2023-04-06T01:18:44.614Z,3.28
2023-04-06T01:21:17.325Z,3.22
2023-04-06T01:24:03.195Z,2.88
2023-04-06T01:26:41.666Z,2.97
2023-04-06T01:29:10.769Z,3.30
2023-04-06T01:31:39.204Z,3.10
2023-04-06T01:34:07.133Z,3.30
2023-04-06T01:36:34.838Z,2.75
2023-04-06T01:39:15.765Z,3.40
2023-04-06T01:41:43.572Z,2.92
2023-04-06T01:44:11.145Z,3.00
2023-04-06T01:46:38.647Z,2.90
2023-04-06T01:49:07.499Z,2.80
2023-04-06T01:51:37.388Z,3.38
2023-04-06T01:54:07.541Z,3.15
2023-04-06T01:56:53.564Z,3.40
2023-04-06T01:59:35.055Z,3.30
2023-04-06T02:02:08.548Z,3.45
2023-04-06T02:04:38.503Z,3.40
2023-04-06T02:09:38.335Z,3.40
2023-04-06T02:12:10.369Z,3.00
2023-04-06T02:14:38.294Z,3.38
2023-04-06T02:17:06.100Z,3.03
2023-04-06T02:19:33.354Z,3.20
2023-04-06T02:22:01.281Z,3.13
2023-04-06T02:24:28.439Z,3.40
2023-04-06T02:26:56.009Z,2.85
2023-04-06T02:29:23.629Z,3.03
2023-04-06T02:31:52.745Z,3.25
2023-04-06T02:34:21.109Z,3.38
2023-04-06T02:36:51.828Z,3.20
2023-04-06T02:39:19.127Z,3.13
2023-04-06T02:41:47.141Z,3.20
2023-04-06T02:44:19.967Z,3.20
2023-04-06T02:46:48.332Z,3.50
2023-04-06T02:49:15.428Z,3.55
2023-04-06T02:51:43.136Z,3.58
2023-04-06T02:54:32.321Z,3.22
2023-04-06T02:57:00.900Z,3.67
2023-04-06T02:59:37.479Z,3.88
2023-04-06T03:02:28.674Z,3.67
2023-04-06T03:05:05.778Z,3.58
2023-04-06T03:07:39.012Z,3.47
2023-04-06T03:10:10.813Z,3.65
2023-04-06T03:12:38.446Z,3.45
2023-04-06T03:15:12.224Z,3.25
2023-04-06T03:17:43.887Z,3.35
2023-04-06T03:20:18.931Z,3.92
2023-04-06T03:22:46.473Z,3.42
2023-04-06T03:25:16.391Z,3.53
2023-04-06T03:27:45.923Z,3.92
2023-04-06T03:30:18.552Z,4.18
2023-04-06T03:32:46.089Z,4.10
2023-04-06T03:35:13.520Z,3.80
2023-04-06T03:37:41.072Z,3.92
2023-04-06T03:40:08.875Z,3.33
2023-04-06T03:42:36.466Z,3.45
2023-04-06T03:45:10.697Z,4.20
2023-04-06T03:47:45.109Z,4.13
2023-04-06T03:50:12.975Z,4.00
2023-04-06T03:52:41.352Z,4.32
2023-04-06T03:55:09.230Z,4.60
2023-04-06T03:57:38.551Z,4.30
2023-04-06T04:00:06.869Z,4.20
2023-04-06T04:02:40.851Z,4.90
2023-04-06T04:05:08.722Z,4.18
2023-04-06T04:07:37.999Z,4.00
2023-04-06T04:10:07.202Z,4.22
2023-04-06T04:12:34.639Z,4.25
2023-04-06T04:15:03.980Z,3.97
2023-04-06T04:17:31.919Z,3.95
2023-04-06T04:19:59.065Z,4.57
2023-04-06T04:22:26.439Z,4.55
2023-04-06T04:24:53.631Z,4.05
2023-04-06T04:27:21.737Z,4.22
2023-04-06T04:29:53.076Z,4.35
2023-04-06T04:32:21.610Z,4.60
2023-04-06T04:34:50.325Z,4.53
2023-04-06T04:37:31.681Z,4.18
2023-04-06T04:39:59.033Z,4.13
2023-04-06T04:42:26.473Z,4.70
2023-04-06T04:44:57.202Z,4.53
2023-04-06T04:47:43.046Z,4.40
2023-04-06T04:50:13.041Z,4.70
2023-04-06T04:52:44.238Z,5.05
2023-04-06T04:55:16.164Z,5.13
2023-04-06T04:57:47.675Z,5.55
2023-04-06T05:00:16.366Z,5.40
2023-04-06T05:02:45.384Z,5.82
2023-04-06T05:05:16.977Z,6.03
2023-04-06T05:07:46.494Z,5.93
2023-04-06T05:10:23.585Z,5.90
2023-04-06T05:12:58.696Z,6.05
2023-04-06T05:15:30.380Z,5.73
2023-04-06T05:18:05.647Z,6.10
2023-04-06T05:20:36.197Z,5.88
2023-04-06T05:23:04.191Z,6.13
2023-04-06T05:25:32.963Z,5.60
2023-04-06T05:28:09.030Z,6.88
2023-04-06T05:30:39.023Z,6.70
2023-04-06T05:33:06.748Z,6.60
2023-04-06T05:35:47.124Z,6.78
2023-04-06T05:38:14.886Z,7.47
2023-04-06T05:40:42.576Z,7.47
2023-04-06T05:43:14.600Z,8.20
2023-04-06T05:45:47.942Z,8.05
2023-04-06T05:48:15.722Z,8.35
2023-04-06T05:50:42.849Z,7.63
2023-04-06T05:53:13.117Z,8.35
2023-04-06T05:55:44.445Z,8.95
2023-04-06T06:00:46.923Z,8.63
2023-04-06T06:03:16.866Z,8.20
2023-04-06T06:05:49.682Z,8.48
2023-04-06T06:08:24.467Z,8.25
2023-04-06T06:10:52.618Z,8.35
2023-04-06T06:13:24.537Z,8.75
2023-04-06T06:15:52.761Z,9.15
2023-04-06T06:18:22.099Z,8.07
2023-04-06T06:20:52.353Z,8.23
2023-04-06T06:23:19.678Z,8.30
2023-04-06T06:25:47.893Z,8.20
2023-04-06T06:28:18.434Z,8.30
2023-04-06T06:30:45.748Z,8.10
2023-04-06T06:33:17.924Z,7.63
2023-04-06T06:35:45.345Z,7.28
2023-04-06T06:38:12.770Z,7.60
2023-04-06T06:40:41.789Z,7.07
2023-04-06T06:43:09.298Z,7.65
2023-04-06T06:46:11.790Z,7.97
2023-04-06T06:48:41.200Z,8.35
2023-04-06T06:51:08.536Z,8.20
2023-04-06T06:53:36.206Z,8.85
2023-04-06T06:56:03.540Z,9.23
2023-04-06T06:58:31.696Z,8.85
2023-04-06T07:01:00.971Z,8.50
2023-04-06T07:03:32.092Z,8.07
2023-04-06T07:06:00.792Z,6.90
2023-04-06T07:08:28.617Z,5.30
2023-04-06T07:10:58.774Z,5.45
2023-04-06T07:13:28.253Z,5.00
2023-04-06T07:15:57.916Z,4.78
2023-04-06T07:18:26.080Z,4.20
2023-04-06T07:20:53.181Z,4.28
2023-04-06T07:23:20.860Z,3.95
2023-04-06T07:25:48.269Z,3.85
2023-04-06T07:28:16.440Z,3.63
2023-04-06T07:30:43.756Z,4.00
2023-04-06T07:33:12.907Z,4.10
2023-04-06T07:35:42.166Z,4.13
2023-04-06T07:38:10.934Z,3.50
2023-04-06T07:40:38.370Z,3.85
2023-04-06T07:43:06.065Z,3.90
2023-04-06T07:45:33.263Z,3.90
2023-04-06T07:48:03.197Z,3.95
2023-04-06T07:50:31.404Z,3.40
2023-04-06T07:52:59.256Z,3.50
2023-04-06T07:55:26.631Z,3.60
2023-04-06T07:57:53.945Z,4.28
2023-04-06T08:00:21.722Z,4.07
2023-04-06T08:02:49.242Z,3.67
2023-04-06T08:05:16.991Z,2.58
2023-04-06T08:07:44.689Z,2.53
2023-04-06T08:10:12.074Z,3.20
2023-04-06T08:12:39.489Z,3.22
2023-04-06T08:15:07.258Z,3.47
2023-04-06T08:17:35.042Z,3.28
2023-04-06T08:20:04.467Z,3.58
2023-04-06T08:22:32.885Z,3.10
2023-04-06T08:25:00.114Z,3.53
2023-04-06T08:27:27.578Z,3.58
2023-04-06T08:29:54.733Z,3.50
2023-04-06T08:32:22.202Z,3.63
2023-04-06T08:34:49.353Z,2.53
2023-04-06T08:37:16.745Z,3.15
2023-04-06T08:39:43.905Z,3.35
2023-04-06T08:42:21.465Z,3.42
2023-04-06T08:44:52.048Z,3.10
2023-04-06T08:47:22.384Z,2.50
2023-04-06T08:49:54.769Z,3.17
2023-04-06T08:52:22.342Z,3.80
2023-04-06T08:54:49.451Z,3.58
2023-04-06T08:57:19.526Z,3.55
2023-04-06T08:59:47.339Z,3.40
2023-04-06T09:02:20.049Z,2.75
2023-04-06T09:04:53.198Z,3.58
2023-04-06T09:07:21.783Z,3.50
2023-04-06T09:09:48.943Z,3.72
2023-04-06T09:12:27.844Z,3.80
2023-04-06T09:14:56.901Z,3.97
2023-04-06T09:17:30.873Z,3.40
2023-04-06T09:19:58.322Z,3.80
2023-04-06T09:22:26.711Z,3.13
2023-04-06T09:24:55.571Z,3.67
2023-04-06T09:27:35.764Z,3.40
2023-04-06T09:30:15.210Z,3.35
2023-04-06T09:32:54.413Z,3.35
2023-04-06T09:35:23.226Z,3.03
2023-04-06T09:37:53.171Z,3.72
2023-04-06T09:40:22.042Z,3.17
2023-04-06T09:42:58.452Z,3.20
2023-04-06T09:45:27.306Z,3.50
2023-04-06T09:47:57.318Z,2.88
2023-04-06T09:50:27.725Z,2.72
2023-04-06T09:52:59.744Z,3.50
2023-04-06T09:55:42.998Z,3.50
2023-04-06T09:58:20.045Z,3.20
2023-04-06T10:01:06.443Z,3.20
2023-04-06T10:04:14.589Z,3.08
2023-04-06T10:06:42.698Z,3.67
2023-04-06T10:09:10.530Z,3.92
2023-04-06T10:11:38.777Z,3.38
2023-04-06T10:14:07.511Z,3.53
2023-04-06T10:16:35.795Z,3.15
2023-04-06T10:19:17.775Z,3.22
2023-04-06T10:21:51.475Z,2.55
2023-04-06T10:24:19.080Z,3.38
2023-04-06T10:27:04.979Z,3.25
2023-04-06T10:29:47.608Z,3.78
2023-04-06T10:32:14.933Z,4.10
2023-04-06T10:34:42.381Z,3.85
2023-04-06T10:37:20.036Z,3.90
2023-04-06T10:39:59.172Z,3.50
2023-04-06T10:42:39.349Z,3.10
2023-04-06T10:45:19.543Z,2.95
2023-04-06T10:47:46.884Z,3.05
2023-04-06T10:50:18.212Z,3.00
2023-04-06T10:53:03.289Z,3.13
2023-04-06T10:55:31.992Z,3.33
2023-04-06T10:57:59.136Z,3.40
2023-04-06T11:00:33.467Z,3.25
2023-04-06T11:03:10.498Z,3.13
2023-04-06T11:05:38.117Z,2.83
2023-04-06T11:08:05.571Z,3.10
2023-04-06T11:10:32.905Z,3.10
2023-04-06T11:13:00.156Z,3.25
2023-04-06T11:15:38.110Z,2.80
2023-04-06T11:18:06.892Z,3.10
2023-04-06T11:20:34.426Z,2.88
2023-04-06T11:23:02.649Z,2.85
2023-04-06T11:25:33.387Z,3.22
2023-04-06T11:28:01.227Z,3.50
2023-04-06T11:30:28.938Z,4.35
2023-04-06T11:33:03.654Z,3.80
2023-04-06T11:35:33.922Z,4.20
2023-04-06T11:38:05.302Z,3.28
2023-04-06T11:40:34.156Z,3.60
2023-04-06T11:43:04.895Z,3.70
2023-04-06T11:45:43.990Z,3.70
2023-04-06T11:48:23.238Z,3.45
2023-04-06T11:51:04.644Z,3.33
2023-04-06T11:53:31.915Z,3.63
2023-04-06T11:56:00.594Z,3.28
2023-04-06T11:58:31.183Z,3.55
2023-04-06T12:01:05.759Z,3.63
2023-04-06T12:03:33.141Z,3.47
2023-04-06T12:06:00.861Z,3.40
2023-04-06T12:08:28.416Z,3.85
2023-04-06T12:10:56.079Z,4.30
2023-04-06T12:13:23.519Z,4.03
2023-04-06T12:15:51.136Z,4.05
2023-04-06T12:18:18.344Z,4.40
2023-04-06T12:20:45.932Z,4.22
2023-04-06T12:23:13.102Z,4.35
2023-04-06T12:25:42.152Z,4.40
2023-04-06T12:28:09.557Z,4.47
2023-04-06T12:30:37.037Z,4.40
2023-04-06T12:33:04.675Z,4.90
2023-04-06T12:35:35.487Z,5.00
2023-04-06T12:38:02.711Z,5.30
2023-04-06T12:40:30.926Z,4.75
2023-04-06T12:42:58.162Z,5.05
2023-04-06T12:45:25.786Z,5.05
2023-04-06T12:47:53.101Z,5.35
2023-04-06T12:50:20.506Z,5.20
2023-04-06T12:52:49.044Z,5.25
2023-04-06T12:55:16.908Z,5.55
2023-04-06T12:57:44.298Z,6.07
2023-04-06T13:00:12.644Z,8.07
2023-04-06T13:02:40.004Z,9.52
2023-04-06T13:05:08.048Z,8.13
2023-04-06T13:07:35.302Z,7.45
2023-04-06T13:10:03.267Z,7.50
2023-04-06T13:12:30.561Z,7.25
2023-04-06T13:14:58.006Z,6.45
2023-04-06T13:17:25.234Z,6.47
2023-04-06T13:19:52.690Z,6.03
2023-04-06T13:22:20.979Z,6.25
2023-04-06T13:24:48.360Z,6.18
2023-04-06T13:27:15.685Z,6.18
2023-04-06T13:29:43.252Z,6.30
2023-04-06T13:32:11.248Z,6.18
2023-04-06T13:34:38.737Z,6.00
2023-04-06T13:37:05.946Z,6.22
2023-04-06T13:39:33.556Z,7.85
2023-04-06T13:42:02.153Z,8.43
2023-04-06T13:44:30.849Z,8.10
2023-04-06T13:46:59.383Z,7.95
2023-04-06T13:49:27.587Z,8.65
2023-04-06T13:51:54.721Z,9.90
2023-04-06T13:54:22.070Z,10.73
2023-04-06T13:56:49.245Z,11.30
2023-04-06T13:59:16.729Z,11.77
2023-04-06T14:01:43.920Z,11.52
2023-04-06T14:04:11.323Z,12.02
2023-04-06T14:06:38.724Z,12.48
2023-04-06T14:09:06.336Z,11.30
2023-04-06T14:11:33.560Z,10.43
2023-04-06T14:14:01.191Z,10.23
2023-04-06T14:16:32.927Z,10.40
2023-04-06T14:19:00.296Z,9.35
2023-04-06T14:21:27.461Z,9.90
2023-04-06T14:23:55.807Z,8.93
2023-04-06T14:26:23.769Z,9.45
2023-04-06T14:28:51.502Z,9.80
2023-04-06T14:31:18.851Z,8.80
2023-04-06T14:33:47.253Z,9.10
2023-04-06T14:36:14.668Z,9.88
2023-04-06T14:38:42.143Z,9.23
2023-04-06T14:41:16.324Z,8.60
2023-04-06T14:43:44.008Z,9.38
2023-04-06T14:46:11.331Z,9.02
2023-04-06T14:48:38.848Z,10.10
2023-04-06T14:51:06.428Z,10.55
2023-04-06T14:53:34.426Z,9.80
2023-04-06T14:56:04.410Z,10.57
2023-04-06T14:58:32.323Z,10.10
2023-04-06T15:01:02.353Z,10.65
2023-04-06T15:03:31.122Z,10.38
2023-04-06T15:05:58.829Z,11.02
2023-04-06T15:08:26.449Z,10.02
2023-04-06T15:10:55.481Z,10.30
2023-04-06T15:13:22.932Z,9.05
2023-04-06T15:15:52.405Z,9.32
2023-04-06T15:18:20.938Z,10.10
2023-04-06T15:20:48.625Z,9.52
2023-04-06T15:23:16.062Z,9.40
2023-04-06T15:25:43.074Z,8.70
2023-04-06T15:28:11.004Z,9.32
2023-04-06T15:30:38.896Z,9.25
2023-04-06T15:33:09.204Z,9.45
2023-04-06T15:35:43.765Z,9.85
2023-04-06T15:38:11.570Z,9.82
2023-04-06T15:40:49.156Z,10.15
2023-04-06T15:43:16.988Z,9.73
2023-04-06T15:45:44.145Z,10.07
2023-04-06T15:48:11.947Z,10.05
2023-04-06T15:50:39.074Z,10.27
2023-04-06T15:53:07.258Z,10.00
2023-04-06T15:55:34.708Z,9.98
2023-04-06T15:58:07.048Z,9.65
2023-04-06T16:00:34.330Z,9.93
2023-04-06T16:03:02.398Z,9.30
2023-04-06T16:05:34.880Z,9.63
2023-04-06T16:08:08.242Z,10.02
2023-04-06T16:10:35.430Z,8.80
2023-04-06T16:13:04.000Z,10.63
2023-04-06T16:15:31.061Z,11.13
2023-04-06T16:17:58.543Z,10.77
2023-04-06T16:20:25.827Z,10.52
2023-04-06T16:22:53.494Z,11.90
2023-04-06T16:25:20.551Z,11.48
2023-04-06T16:27:48.195Z,11.48
2023-04-06T16:30:15.588Z,10.55
2023-04-06T16:32:44.488Z,10.55
2023-04-06T16:35:11.637Z,10.77
2023-04-06T16:37:39.025Z,11.80
2023-04-06T16:40:07.397Z,10.77
2023-04-06T16:42:34.896Z,11.20
2023-04-06T16:45:04.486Z,11.13
2023-04-06T16:47:32.117Z,11.55
2023-04-06T16:50:05.471Z,11.35
2023-04-06T16:52:34.833Z,11.60
2023-04-06T16:55:02.208Z,11.70
2023-04-06T16:57:29.831Z,12.15
2023-04-06T16:59:57.280Z,12.35
2023-04-06T17:02:25.393Z,12.80
2023-04-06T17:04:53.033Z,13.38
2023-04-06T17:07:25.489Z,13.40
2023-04-06T17:09:52.798Z,15.23
2023-04-06T17:12:20.301Z,14.50
2023-04-06T17:14:47.430Z,14.57
2023-04-06T17:17:14.973Z,15.25
2023-04-06T17:19:42.092Z,16.17
2023-04-06T17:22:09.415Z,16.55
2023-04-06T17:24:36.501Z,16.80
2023-04-06T17:27:04.149Z,16.77
2023-04-06T17:29:31.280Z,16.48
2023-04-06T17:31:58.795Z,16.10
2023-04-06T17:34:26.172Z,15.00
2023-04-06T17:36:53.520Z,15.50
2023-04-06T17:39:20.975Z,15.57
2023-04-06T17:41:48.460Z,15.05
2023-04-06T17:44:15.717Z,15.30
2023-04-06T17:46:43.413Z,14.80
2023-04-06T17:49:10.644Z,14.45
2023-04-06T17:51:38.234Z,14.52
2023-04-06T17:54:05.476Z,15.25
2023-04-06T17:56:32.795Z,14.35
2023-04-06T17:58:59.960Z,14.55
2023-04-06T18:01:28.522Z,13.80
2023-04-06T18:03:56.202Z,14.18
2023-04-06T18:06:25.660Z,13.30
2023-04-06T18:08:54.530Z,13.70
2023-04-06T18:11:22.068Z,13.65
2023-04-06T18:13:49.684Z,13.68
2023-04-06T18:16:20.261Z,13.27
2023-04-06T18:18:47.896Z,14.25
2023-04-06T18:21:15.591Z,13.38
2023-04-06T18:23:43.027Z,13.63
2023-04-06T18:26:19.896Z,15.13
2023-04-06T18:28:47.833Z,14.48
2023-04-06T18:31:15.723Z,15.18
2023-04-06T18:33:43.863Z,15.00
2023-04-06T18:36:11.595Z,15.85
2023-04-06T18:38:44.214Z,15.93
2023-04-06T18:41:11.829Z,16.05
2023-04-06T18:43:40.163Z,15.35
2023-04-06T18:46:13.418Z,15.68
2023-04-06T18:48:41.931Z,15.10
2023-04-06T18:51:10.424Z,15.63
2023-04-06T18:53:39.779Z,15.65
2023-04-06T18:56:19.848Z,15.40
2023-04-06T18:58:48.506Z,15.05
2023-04-06T19:01:29.105Z,15.45
2023-04-06T19:03:59.875Z,14.68
2023-04-06T19:06:28.790Z,14.32
2023-04-06T19:08:56.694Z,13.65
2023-04-06T19:11:25.426Z,14.50
2023-04-06T19:13:57.050Z,14.35
2023-04-06T19:16:27.714Z,15.07
2023-04-06T19:18:55.891Z,13.80
2023-04-06T19:21:26.267Z,13.70
2023-04-06T19:23:55.673Z,14.02
2023-04-06T19:26:25.276Z,13.27
2023-04-06T19:28:52.315Z,12.95
2023-04-06T19:31:20.293Z,13.27
2023-04-06T19:33:48.473Z,13.80
2023-04-06T19:36:16.390Z,14.77
2023-04-06T19:38:43.717Z,14.38
2023-04-06T19:41:11.482Z,15.38
2023-04-06T19:43:38.522Z,14.32
2023-04-06T19:46:06.001Z,15.30
2023-04-06T19:48:33.873Z,15.60
2023-04-06T19:51:02.317Z,14.43
2023-04-06T19:53:29.451Z,13.93
2023-04-06T19:55:56.730Z,14.98
2023-04-06T19:58:23.823Z,14.88
2023-04-06T20:00:51.365Z,14.77
2023-04-06T20:03:18.550Z,15.75
2023-04-06T20:05:46.766Z,15.07
2023-04-06T20:08:14.214Z,16.27
2023-04-06T20:10:42.547Z,15.27
2023-04-06T20:13:09.756Z,15.70
2023-04-06T20:15:37.275Z,15.25
2023-04-06T20:18:04.443Z,15.77
2023-04-06T20:20:31.918Z,14.95
2023-04-06T20:22:59.301Z,15.23
2023-04-06T20:25:27.132Z,15.02
2023-04-06T20:27:54.324Z,15.88
2023-04-06T20:30:22.368Z,15.38
2023-04-06T20:32:49.529Z,16.17
2023-04-06T20:35:17.047Z,15.13
2023-04-06T20:37:44.152Z,15.38
2023-04-06T20:40:12.721Z,16.10
2023-04-06T20:42:41.958Z,16.13
2023-04-06T20:45:10.005Z,16.20
2023-04-06T20:47:37.366Z,15.57
2023-04-06T20:50:06.989Z,15.77
2023-04-06T20:52:34.735Z,15.80
2023-04-06T20:55:04.657Z,15.73
2023-04-06T20:57:32.059Z,14.80
2023-04-06T20:59:59.446Z,15.00
2023-04-06T21:02:26.608Z,15.05
2023-04-06T21:04:54.050Z,15.48
2023-04-06T21:07:21.315Z,15.52
2023-04-06T21:09:48.630Z,14.50
2023-04-06T21:12:15.911Z,14.93
2023-04-06T21:14:43.338Z,14.57
2023-04-06T21:17:11.399Z,14.60
2023-04-06T21:19:38.752Z,13.65
2023-04-06T21:22:06.133Z,13.65
2023-04-06T21:24:33.440Z,13.63
2023-04-06T21:27:00.484Z,13.18
2023-04-06T21:29:32.721Z,12.93
2023-04-06T21:31:59.815Z,13.77
2023-04-06T21:34:27.151Z,14.23
2023-04-06T21:36:54.287Z,13.43
2023-04-06T21:39:23.936Z,14.13
2023-04-06T21:41:51.630Z,13.63
2023-04-06T21:44:19.330Z,14.55
2023-04-06T21:46:46.465Z,13.38
2023-04-06T21:49:13.807Z,13.52
2023-04-06T21:51:41.670Z,12.90
2023-04-06T21:54:09.056Z,12.75
2023-04-06T21:56:36.105Z,13.02
2023-04-06T21:59:03.511Z,12.50
2023-04-06T22:01:30.568Z,12.10
2023-04-06T22:03:58.043Z,12.23
2023-04-06T22:06:25.816Z,12.55
2023-04-06T22:08:53.251Z,12.18
2023-04-06T22:11:21.087Z,12.05
2023-04-06T22:13:48.461Z,12.38
2023-04-06T22:16:15.640Z,11.52
2023-04-06T22:18:42.989Z,11.35
2023-04-06T22:21:10.323Z,11.13
2023-04-06T22:23:42.099Z,11.45
2023-04-06T22:26:11.721Z,11.77
2023-04-06T22:28:39.169Z,12.00
2023-04-06T22:31:06.311Z,11.35
2023-04-06T22:33:33.867Z,11.88
2023-04-06T22:36:01.038Z,11.70
2023-04-06T22:38:28.376Z,12.15
2023-04-06T22:40:55.586Z,12.40
2023-04-06T22:43:22.994Z,12.38
2023-04-06T22:45:50.246Z,12.80
2023-04-06T22:48:17.705Z,12.48
2023-04-06T22:50:44.792Z,12.35
2023-04-06T22:53:12.104Z,12.30
2023-04-06T22:55:42.400Z,11.57
2023-04-06T22:58:09.725Z,12.73
2023-04-06T23:00:36.717Z,12.55
2023-04-06T23:03:04.268Z,11.93
2023-04-06T23:05:32.593Z,11.70
2023-04-06T23:07:59.924Z,12.88
2023-04-06T23:10:27.063Z,12.13
2023-04-06T23:12:54.394Z,13.00
2023-04-06T23:15:21.403Z,12.45
2023-04-06T23:17:48.793Z,13.30
2023-04-06T23:20:16.159Z,13.38
2023-04-06T23:22:43.455Z,12.35
2023-04-06T23:25:10.887Z,12.82
2023-04-06T23:27:38.325Z,13.55
2023-04-06T23:30:06.637Z,13.48
2023-04-06T23:32:34.204Z,12.75
2023-04-06T23:35:03.437Z,13.20
2023-04-06T23:37:30.990Z,12.48
2023-04-06T23:39:58.175Z,14.00
2023-04-06T23:42:28.614Z,13.65
2023-04-06T23:44:56.454Z,13.23
2023-04-06T23:47:24.178Z,13.98
2023-04-06T23:49:51.434Z,13.95
2023-04-06T23:52:18.822Z,13.50
2023-04-06T23:54:46.099Z,13.80
2023-04-06T23:57:13.402Z,13.93
2023-04-06T23:59:40.673Z,14.13
